sensor_id;sensor_type;location;lat;lon;timestamp;temperature;humidity
8882;DHT22;4477;48.736;9.176;2024-03-17T00:00:19;3.00;99.90
8882;DHT22;4477;48.736;9.176;2024-03-17T00:02:45;3.00;99.90
8882;DHT22;4477;48.736;9.176;2024-03-17T00:05:13;3.00;99.90
8882;DHT22;4477;48.736;9.176;2024-03-17T00:07:40;2.90;99.90
8882;DHT22;4477;48.736;9.176;2024-03-17T00:10:07;2.90;99.90
8882;DHT22;4477;48.736;9.176;2024-03-17T00:12:33;3.00;99.90
8882;DHT22;4477;48.736;9.176;2024-03-17T00:15:00;2.90;99.90
8882;DHT22;4477;48.736;9.176;2024-03-17T00:17:26;2.90;99.90
8882;DHT22;4477;48.736;9.176;2024-03-17T00:19:55;2.90;99.90
8882;DHT22;4477;48.736;9.176;2024-03-17T00:22:21;2.90;99.90
8882;DHT22;4477;48.736;9.176;2024-03-17T00:24:49;3.00;99.90
8882;DHT22;4477;48.736;9.176;2024-03-17T00:27:15;3.10;99.90
8882;DHT22;4477;48.736;9.176;2024-03-17T00:29:42;3.10;99.90
8882;DHT22;4477;48.736;9.176;2024-03-17T00:32:08;3.20;99.90
8882;DHT22;4477;48.736;9.176;2024-03-17T00:34:37;3.20;99.90
8882;DHT22;4477;48.736;9.176;2024-03-17T00:37:03;3.10;99.90
8882;DHT22;4477;48.736;9.176;2024-03-17T00:39:30;3.10;99.90
8882;DHT22;4477;48.736;9.176;2024-03-17T00:41:57;3.00;99.90
8882;DHT22;4477;48.736;9.176;2024-03-17T00:44:24;3.00;99.90
8882;DHT22;4477;48.736;9.176;2024-03-17T00:46:50;2.90;99.90
8882;DHT22;4477;48.736;9.176;2024-03-17T00:49:17;3.00;99.90
8882;DHT22;4477;48.736;9.176;2024-03-17T00:51:43;3.00;99.90
8882;DHT22;4477;48.736;9.176;2024-03-17T00:54:13;3.00;99.90
8882;DHT22;4477;48.736;9.176;2024-03-17T00:56:39;3.10;99.90
8882;DHT22;4477;48.736;9.176;2024-03-17T00:59:08;3.20;99.90
8882;DHT22;4477;48.736;9.176;2024-03-17T01:01:34;3.40;99.90
8882;DHT22;4477;48.736;9.176;2024-03-17T01:04:01;3.50;99.90
8882;DHT22;4477;48.736;9.176;2024-03-17T01:06:27;3.60;99.90
8882;DHT22;4477;48.736;9.176;2024-03-17T01:08:54;3.80;99.90
8882;DHT22;4477;48.736;9.176;2024-03-17T01:11:20;3.80;99.90
8882;DHT22;4477;48.736;9.176;2024-03-17T01:13:47;3.70;99.90
8882;DHT22;4477;48.736;9.176;2024-03-17T01:16:14;3.60;99.90
8882;DHT22;4477;48.736;9.176;2024-03-17T01:18:42;3.50;99.90
8882;DHT22;4477;48.736;9.176;2024-03-17T01:21:10;3.50;99.90
8882;DHT22;4477;48.736;9.176;2024-03-17T01:23:37;3.40;99.90
8882;DHT22;4477;48.736;9.176;2024-03-17T01:26:03;3.40;99.90
8882;DHT22;4477;48.736;9.176;2024-03-17T01:28:31;3.40;99.90
8882;DHT22;4477;48.736;9.176;2024-03-17T01:30:57;3.50;99.90
8882;DHT22;4477;48.736;9.176;2024-03-17T01:33:25;3.40;99.90
8882;DHT22;4477;48.736;9.176;2024-03-17T01:35:52;3.30;99.90
8882;DHT22;4477;48.736;9.176;2024-03-17T01:38:18;3.40;99.90
8882;DHT22;4477;48.736;9.176;2024-03-17T01:40:46;3.60;99.90
8882;DHT22;4477;48.736;9.176;2024-03-17T01:43:12;3.60;99.90
8882;DHT22;4477;48.736;9.176;2024-03-17T01:45:39;3.70;99.90
8882;DHT22;4477;48.736;9.176;2024-03-17T01:48:13;4.00;99.90
8882;DHT22;4477;48.736;9.176;2024-03-17T01:50:42;4.10;99.90
8882;DHT22;4477;48.736;9.176;2024-03-17T01:53:10;4.20;99.90
8882;DHT22;4477;48.736;9.176;2024-03-17T01:55:40;4.40;99.90
8882;DHT22;4477;48.736;9.176;2024-03-17T01:58:08;4.40;99.90
8882;DHT22;4477;48.736;9.176;2024-03-17T02:00:36;4.60;99.90
8882;DHT22;4477;48.736;9.176;2024-03-17T02:03:03;4.60;99.90
8882;DHT22;4477;48.736;9.176;2024-03-17T02:05:30;4.60;99.90
8882;DHT22;4477;48.736;9.176;2024-03-17T02:07:57;4.60;99.90
8882;DHT22;4477;48.736;9.176;2024-03-17T02:10:24;4.60;99.90
8882;DHT22;4477;48.736;9.176;2024-03-17T02:12:52;4.70;99.90
8882;DHT22;4477;48.736;9.176;2024-03-17T02:15:19;4.80;99.90
8882;DHT22;4477;48.736;9.176;2024-03-17T02:17:45;4.70;99.90
8882;DHT22;4477;48.736;9.176;2024-03-17T02:20:12;4.70;99.90
8882;DHT22;4477;48.736;9.176;2024-03-17T02:22:41;4.70;99.90
8882;DHT22;4477;48.736;9.176;2024-03-17T02:25:08;4.70;99.90
8882;DHT22;4477;48.736;9.176;2024-03-17T02:27:34;4.70;99.90
8882;DHT22;4477;48.736;9.176;2024-03-17T02:30:02;4.70;99.90
8882;DHT22;4477;48.736;9.176;2024-03-17T02:32:28;4.60;99.90
8882;DHT22;4477;48.736;9.176;2024-03-17T02:34:55;4.60;99.90
8882;DHT22;4477;48.736;9.176;2024-03-17T02:37:22;4.60;99.90
8882;DHT22;4477;48.736;9.176;2024-03-17T02:39:50;4.60;99.90
8882;DHT22;4477;48.736;9.176;2024-03-17T02:42:19;4.60;99.90
8882;DHT22;4477;48.736;9.176;2024-03-17T02:44:45;4.60;99.90
8882;DHT22;4477;48.736;9.176;2024-03-17T02:47:12;4.60;99.90
8882;DHT22;4477;48.736;9.176;2024-03-17T02:49:41;4.60;99.90
8882;DHT22;4477;48.736;9.176;2024-03-17T02:52:10;4.60;99.90
8882;DHT22;4477;48.736;9.176;2024-03-17T02:54:37;4.50;99.90
8882;DHT22;4477;48.736;9.176;2024-03-17T02:57:06;4.50;99.90
8882;DHT22;4477;48.736;9.176;2024-03-17T02:59:34;4.50;99.90
8882;DHT22;4477;48.736;9.176;2024-03-17T03:02:01;4.40;99.90
8882;DHT22;4477;48.736;9.176;2024-03-17T03:04:28;4.30;99.90
8882;DHT22;4477;48.736;9.176;2024-03-17T03:06:55;4.10;99.90
8882;DHT22;4477;48.736;9.176;2024-03-17T03:09:21;4.00;99.90
8882;DHT22;4477;48.736;9.176;2024-03-17T03:11:52;3.80;99.90
8882;DHT22;4477;48.736;9.176;2024-03-17T03:14:20;3.70;99.90
8882;DHT22;4477;48.736;9.176;2024-03-17T03:16:48;3.60;99.90
8882;DHT22;4477;48.736;9.176;2024-03-17T03:19:16;3.60;99.90
8882;DHT22;4477;48.736;9.176;2024-03-17T03:21:44;3.60;99.90
8882;DHT22;4477;48.736;9.176;2024-03-17T03:24:11;3.80;99.90
8882;DHT22;4477;48.736;9.176;2024-03-17T03:26:38;3.80;99.90
8882;DHT22;4477;48.736;9.176;2024-03-17T03:29:05;3.80;99.90
8882;DHT22;4477;48.736;9.176;2024-03-17T03:31:34;3.60;99.90
8882;DHT22;4477;48.736;9.176;2024-03-17T03:34:01;3.50;99.90
8882;DHT22;4477;48.736;9.176;2024-03-17T03:36:29;3.50;99.90
8882;DHT22;4477;48.736;9.176;2024-03-17T03:38:56;3.50;99.90
8882;DHT22;4477;48.736;9.176;2024-03-17T03:41:24;3.50;99.90
8882;DHT22;4477;48.736;9.176;2024-03-17T03:43:51;3.40;99.90
8882;DHT22;4477;48.736;9.176;2024-03-17T03:46:19;3.30;99.90
8882;DHT22;4477;48.736;9.176;2024-03-17T03:48:47;3.20;99.90
8882;DHT22;4477;48.736;9.176;2024-03-17T03:51:14;3.10;99.90
8882;DHT22;4477;48.736;9.176;2024-03-17T03:53:41;3.00;99.90
8882;DHT22;4477;48.736;9.176;2024-03-17T03:56:09;3.00;99.90
8882;DHT22;4477;48.736;9.176;2024-03-17T03:58:37;2.90;99.90
8882;DHT22;4477;48.736;9.176;2024-03-17T04:01:05;2.80;99.90
8882;DHT22;4477;48.736;9.176;2024-03-17T04:03:32;3.00;99.90
8882;DHT22;4477;48.736;9.176;2024-03-17T04:06:06;3.20;99.90
8882;DHT22;4477;48.736;9.176;2024-03-17T04:08:34;3.40;99.90
8882;DHT22;4477;48.736;9.176;2024-03-17T04:11:01;3.40;99.90
8882;DHT22;4477;48.736;9.176;2024-03-17T04:13:28;3.40;99.90
8882;DHT22;4477;48.736;9.176;2024-03-17T04:15:56;3.50;99.90
8882;DHT22;4477;48.736;9.176;2024-03-17T04:18:26;3.60;99.90
8882;DHT22;4477;48.736;9.176;2024-03-17T04:20:56;3.50;99.90
8882;DHT22;4477;48.736;9.176;2024-03-17T04:23:24;3.60;99.90
8882;DHT22;4477;48.736;9.176;2024-03-17T04:25:52;3.60;99.90
8882;DHT22;4477;48.736;9.176;2024-03-17T04:28:19;3.60;99.90
8882;DHT22;4477;48.736;9.176;2024-03-17T04:30:45;3.70;99.90
8882;DHT22;4477;48.736;9.176;2024-03-17T04:33:15;3.70;99.90
8882;DHT22;4477;48.736;9.176;2024-03-17T04:35:42;3.70;99.90
8882;DHT22;4477;48.736;9.176;2024-03-17T04:38:09;3.70;99.90
8882;DHT22;4477;48.736;9.176;2024-03-17T04:40:41;3.70;99.90
8882;DHT22;4477;48.736;9.176;2024-03-17T04:43:08;3.70;99.90
8882;DHT22;4477;48.736;9.176;2024-03-17T04:45:35;3.60;99.90
8882;DHT22;4477;48.736;9.176;2024-03-17T04:48:03;3.50;99.90
8882;DHT22;4477;48.736;9.176;2024-03-17T04:50:30;3.60;99.90
8882;DHT22;4477;48.736;9.176;2024-03-17T04:52:58;3.70;99.90
8882;DHT22;4477;48.736;9.176;2024-03-17T04:55:25;3.70;99.90
8882;DHT22;4477;48.736;9.176;2024-03-17T04:57:53;3.80;99.90
8882;DHT22;4477;48.736;9.176;2024-03-17T05:00:20;3.80;99.90
8882;DHT22;4477;48.736;9.176;2024-03-17T05:02:47;3.70;99.90
8882;DHT22;4477;48.736;9.176;2024-03-17T05:05:14;3.70;99.90
8882;DHT22;4477;48.736;9.176;2024-03-17T05:07:41;3.70;99.90
8882;DHT22;4477;48.736;9.176;2024-03-17T05:10:09;3.50;99.90
8882;DHT22;4477;48.736;9.176;2024-03-17T05:12:36;3.40;99.90
8882;DHT22;4477;48.736;9.176;2024-03-17T05:15:05;3.30;99.90
8882;DHT22;4477;48.736;9.176;2024-03-17T05:17:35;3.30;99.90
8882;DHT22;4477;48.736;9.176;2024-03-17T05:20:07;3.20;99.90
8882;DHT22;4477;48.736;9.176;2024-03-17T05:22:35;3.00;99.90
8882;DHT22;4477;48.736;9.176;2024-03-17T05:25:03;2.90;99.90
8882;DHT22;4477;48.736;9.176;2024-03-17T05:27:30;3.00;99.90
8882;DHT22;4477;48.736;9.176;2024-03-17T05:29:56;2.90;99.90
8882;DHT22;4477;48.736;9.176;2024-03-17T05:32:25;2.90;99.90
8882;DHT22;4477;48.736;9.176;2024-03-17T05:34:52;3.00;99.90
8882;DHT22;4477;48.736;9.176;2024-03-17T05:37:19;3.20;99.90
8882;DHT22;4477;48.736;9.176;2024-03-17T05:39:47;3.30;99.90
8882;DHT22;4477;48.736;9.176;2024-03-17T05:42:14;3.40;99.90
8882;DHT22;4477;48.736;9.176;2024-03-17T05:44:41;3.60;99.90
8882;DHT22;4477;48.736;9.176;2024-03-17T05:47:17;3.60;99.90
8882;DHT22;4477;48.736;9.176;2024-03-17T05:49:46;3.50;99.90
8882;DHT22;4477;48.736;9.176;2024-03-17T05:52:13;3.50;99.90
8882;DHT22;4477;48.736;9.176;2024-03-17T05:54:40;3.50;99.90
8882;DHT22;4477;48.736;9.176;2024-03-17T05:57:07;3.50;99.90
8882;DHT22;4477;48.736;9.176;2024-03-17T05:59:35;3.60;99.90
8882;DHT22;4477;48.736;9.176;2024-03-17T06:02:02;3.60;99.90
8882;DHT22;4477;48.736;9.176;2024-03-17T06:04:29;3.70;99.90
8882;DHT22;4477;48.736;9.176;2024-03-17T06:06:57;3.70;99.90
8882;DHT22;4477;48.736;9.176;2024-03-17T06:09:25;3.70;99.90
8882;DHT22;4477;48.736;9.176;2024-03-17T06:11:53;3.70;99.90
8882;DHT22;4477;48.736;9.176;2024-03-17T06:14:20;3.60;99.90
8882;DHT22;4477;48.736;9.176;2024-03-17T06:16:47;3.60;99.90
8882;DHT22;4477;48.736;9.176;2024-03-17T06:19:14;3.70;99.90
8882;DHT22;4477;48.736;9.176;2024-03-17T06:21:41;3.90;99.90
8882;DHT22;4477;48.736;9.176;2024-03-17T06:24:11;4.00;99.90
8882;DHT22;4477;48.736;9.176;2024-03-17T06:26:38;4.20;99.90
8882;DHT22;4477;48.736;9.176;2024-03-17T06:29:04;4.40;99.90
8882;DHT22;4477;48.736;9.176;2024-03-17T06:31:31;4.60;99.90
8882;DHT22;4477;48.736;9.176;2024-03-17T06:33:58;4.80;99.90
8882;DHT22;4477;48.736;9.176;2024-03-17T06:36:25;5.00;99.90
8882;DHT22;4477;48.736;9.176;2024-03-17T06:38:52;5.10;99.90
8882;DHT22;4477;48.736;9.176;2024-03-17T06:41:21;5.30;99.90
8882;DHT22;4477;48.736;9.176;2024-03-17T06:43:48;5.50;99.90
8882;DHT22;4477;48.736;9.176;2024-03-17T06:46:15;5.70;99.90
8882;DHT22;4477;48.736;9.176;2024-03-17T06:48:43;5.90;99.90
8882;DHT22;4477;48.736;9.176;2024-03-17T06:51:10;6.10;99.90
8882;DHT22;4477;48.736;9.176;2024-03-17T06:53:37;6.30;99.90
8882;DHT22;4477;48.736;9.176;2024-03-17T06:56:04;6.60;99.90
8882;DHT22;4477;48.736;9.176;2024-03-17T06:58:33;6.70;99.90
8882;DHT22;4477;48.736;9.176;2024-03-17T07:01:01;7.00;99.90
8882;DHT22;4477;48.736;9.176;2024-03-17T07:03:29;7.30;99.90
8882;DHT22;4477;48.736;9.176;2024-03-17T07:05:58;7.60;99.90
8882;DHT22;4477;48.736;9.176;2024-03-17T07:08:27;8.00;99.90
8882;DHT22;4477;48.736;9.176;2024-03-17T07:10:56;8.10;99.90
8882;DHT22;4477;48.736;9.176;2024-03-17T07:13:23;7.90;99.90
8882;DHT22;4477;48.736;9.176;2024-03-17T07:15:51;8.00;99.90
8882;DHT22;4477;48.736;9.176;2024-03-17T07:18:21;8.10;99.90
8882;DHT22;4477;48.736;9.176;2024-03-17T07:20:48;8.30;99.90
8882;DHT22;4477;48.736;9.176;2024-03-17T07:23:15;9.00;99.90
8882;DHT22;4477;48.736;9.176;2024-03-17T07:25:42;9.30;99.90
8882;DHT22;4477;48.736;9.176;2024-03-17T07:28:17;9.60;99.90
8882;DHT22;4477;48.736;9.176;2024-03-17T07:30:48;9.70;99.90
8882;DHT22;4477;48.736;9.176;2024-03-17T07:33:16;10.50;99.90
8882;DHT22;4477;48.736;9.176;2024-03-17T07:35:47;11.30;99.90
8882;DHT22;4477;48.736;9.176;2024-03-17T07:38:14;12.00;99.90
8882;DHT22;4477;48.736;9.176;2024-03-17T07:40:42;12.90;99.90
8882;DHT22;4477;48.736;9.176;2024-03-17T07:43:09;13.90;99.90
8882;DHT22;4477;48.736;9.176;2024-03-17T07:45:36;15.10;99.90
8882;DHT22;4477;48.736;9.176;2024-03-17T07:48:03;15.30;99.90
8882;DHT22;4477;48.736;9.176;2024-03-17T07:50:33;15.60;99.90
8882;DHT22;4477;48.736;9.176;2024-03-17T07:53:00;16.00;99.90
8882;DHT22;4477;48.736;9.176;2024-03-17T07:55:29;16.30;99.90
8882;DHT22;4477;48.736;9.176;2024-03-17T07:57:56;16.40;96.80
8882;DHT22;4477;48.736;9.176;2024-03-17T08:00:23;15.50;93.10
8882;DHT22;4477;48.736;9.176;2024-03-17T08:02:50;15.50;90.70
8882;DHT22;4477;48.736;9.176;2024-03-17T08:05:18;15.30;89.00
8882;DHT22;4477;48.736;9.176;2024-03-17T08:07:49;14.90;86.80
8882;DHT22;4477;48.736;9.176;2024-03-17T08:10:17;14.00;88.30
8882;DHT22;4477;48.736;9.176;2024-03-17T08:12:44;13.40;88.80
8882;DHT22;4477;48.736;9.176;2024-03-17T08:15:11;13.30;90.10
8882;DHT22;4477;48.736;9.176;2024-03-17T08:17:39;13.40;90.50
8882;DHT22;4477;48.736;9.176;2024-03-17T08:20:07;13.40;90.00
8882;DHT22;4477;48.736;9.176;2024-03-17T08:22:34;13.40;90.10
8882;DHT22;4477;48.736;9.176;2024-03-17T08:25:02;13.90;89.00
8882;DHT22;4477;48.736;9.176;2024-03-17T08:27:30;14.10;87.60
8882;DHT22;4477;48.736;9.176;2024-03-17T08:30:02;14.20;87.10
8882;DHT22;4477;48.736;9.176;2024-03-17T08:32:34;13.80;84.20
8882;DHT22;4477;48.736;9.176;2024-03-17T08:38:05;13.80;86.50
8882;DHT22;4477;48.736;9.176;2024-03-17T08:40:46;13.30;86.20
8882;DHT22;4477;48.736;9.176;2024-03-17T08:43:13;13.20;87.90
8882;DHT22;4477;48.736;9.176;2024-03-17T08:45:40;13.40;85.60
8882;DHT22;4477;48.736;9.176;2024-03-17T08:48:07;14.00;85.20
8882;DHT22;4477;48.736;9.176;2024-03-17T08:50:37;14.70;84.20
8882;DHT22;4477;48.736;9.176;2024-03-17T08:53:04;15.60;81.40
8882;DHT22;4477;48.736;9.176;2024-03-17T08:55:32;16.30;77.30
8882;DHT22;4477;48.736;9.176;2024-03-17T08:58:00;17.50;78.80
8882;DHT22;4477;48.736;9.176;2024-03-17T09:00:27;18.10;71.10
8882;DHT22;4477;48.736;9.176;2024-03-17T09:02:56;17.60;68.80
8882;DHT22;4477;48.736;9.176;2024-03-17T09:05:24;17.20;69.50
8882;DHT22;4477;48.736;9.176;2024-03-17T09:07:51;17.10;69.50
8882;DHT22;4477;48.736;9.176;2024-03-17T09:10:18;17.20;69.10
8882;DHT22;4477;48.736;9.176;2024-03-17T09:12:45;17.40;66.70
8882;DHT22;4477;48.736;9.176;2024-03-17T09:15:14;17.60;66.90
8882;DHT22;4477;48.736;9.176;2024-03-17T09:17:41;18.40;62.90
8882;DHT22;4477;48.736;9.176;2024-03-17T09:20:11;18.60;62.20
8882;DHT22;4477;48.736;9.176;2024-03-17T09:22:40;18.70;57.60
8882;DHT22;4477;48.736;9.176;2024-03-17T09:25:08;18.50;57.70
8882;DHT22;4477;48.736;9.176;2024-03-17T09:27:38;18.50;58.50
8882;DHT22;4477;48.736;9.176;2024-03-17T09:30:06;18.40;55.80
8882;DHT22;4477;48.736;9.176;2024-03-17T09:32:37;18.60;56.80
8882;DHT22;4477;48.736;9.176;2024-03-17T09:35:05;17.80;56.90
8882;DHT22;4477;48.736;9.176;2024-03-17T09:37:32;17.50;56.70
8882;DHT22;4477;48.736;9.176;2024-03-17T09:40:00;17.30;54.70
8882;DHT22;4477;48.736;9.176;2024-03-17T09:42:27;16.80;56.30
8882;DHT22;4477;48.736;9.176;2024-03-17T09:44:59;17.10;54.80
8882;DHT22;4477;48.736;9.176;2024-03-17T09:47:26;17.00;54.70
8882;DHT22;4477;48.736;9.176;2024-03-17T09:49:55;16.80;56.80
8882;DHT22;4477;48.736;9.176;2024-03-17T09:52:23;16.70;55.70
8882;DHT22;4477;48.736;9.176;2024-03-17T09:54:55;16.60;55.90
8882;DHT22;4477;48.736;9.176;2024-03-17T09:57:25;16.40;54.80
8882;DHT22;4477;48.736;9.176;2024-03-17T09:59:52;16.00;57.10
8882;DHT22;4477;48.736;9.176;2024-03-17T10:02:21;16.30;56.70
8882;DHT22;4477;48.736;9.176;2024-03-17T10:04:48;16.50;57.10
8882;DHT22;4477;48.736;9.176;2024-03-17T10:07:17;16.60;58.80
8882;DHT22;4477;48.736;9.176;2024-03-17T10:13:37;17.60;54.20
8882;DHT22;4477;48.736;9.176;2024-03-17T10:16:04;18.20;55.00
8882;DHT22;4477;48.736;9.176;2024-03-17T10:18:31;18.10;54.10
8882;DHT22;4477;48.736;9.176;2024-03-17T10:21:00;17.40;55.80
8882;DHT22;4477;48.736;9.176;2024-03-17T10:23:29;16.60;55.30
8882;DHT22;4477;48.736;9.176;2024-03-17T10:25:56;16.20;56.20
8882;DHT22;4477;48.736;9.176;2024-03-17T10:28:23;16.60;56.30
8882;DHT22;4477;48.736;9.176;2024-03-17T10:31:00;16.60;55.50
8882;DHT22;4477;48.736;9.176;2024-03-17T10:33:27;16.70;57.20
8882;DHT22;4477;48.736;9.176;2024-03-17T10:36:03;17.20;56.00
8882;DHT22;4477;48.736;9.176;2024-03-17T10:38:33;17.90;55.20
8882;DHT22;4477;48.736;9.176;2024-03-17T10:41:01;18.20;54.10
8882;DHT22;4477;48.736;9.176;2024-03-17T10:43:28;18.60;52.40
8882;DHT22;4477;48.736;9.176;2024-03-17T10:45:58;18.60;53.40
8882;DHT22;4477;48.736;9.176;2024-03-17T10:48:30;18.50;52.10
8882;DHT22;4477;48.736;9.176;2024-03-17T10:50:59;18.90;53.20
8882;DHT22;4477;48.736;9.176;2024-03-17T10:53:29;19.00;51.80
8882;DHT22;4477;48.736;9.176;2024-03-17T10:56:06;18.10;53.60
8882;DHT22;4477;48.736;9.176;2024-03-17T10:58:35;18.70;52.30
8882;DHT22;4477;48.736;9.176;2024-03-17T11:01:04;19.30;52.80
8882;DHT22;4477;48.736;9.176;2024-03-17T11:03:33;19.70;50.50
8882;DHT22;4477;48.736;9.176;2024-03-17T11:06:03;20.20;49.60
8882;DHT22;4477;48.736;9.176;2024-03-17T11:08:32;20.50;50.00
8882;DHT22;4477;48.736;9.176;2024-03-17T11:11:01;20.40;48.60
8882;DHT22;4477;48.736;9.176;2024-03-17T11:13:30;20.40;51.60
8882;DHT22;4477;48.736;9.176;2024-03-17T11:15:59;20.20;48.00
8882;DHT22;4477;48.736;9.176;2024-03-17T11:18:37;19.20;51.30
8882;DHT22;4477;48.736;9.176;2024-03-17T11:21:22;18.30;53.10
8882;DHT22;4477;48.736;9.176;2024-03-17T11:23:59;17.90;53.20
8882;DHT22;4477;48.736;9.176;2024-03-17T11:26:29;18.10;54.60
8882;DHT22;4477;48.736;9.176;2024-03-17T11:28:57;18.10;55.00
8882;DHT22;4477;48.736;9.176;2024-03-17T11:31:43;17.70;54.60
8882;DHT22;4477;48.736;9.176;2024-03-17T11:34:35;18.10;54.40
8882;DHT22;4477;48.736;9.176;2024-03-17T11:37:06;17.40;53.70
8882;DHT22;4477;48.736;9.176;2024-03-17T11:39:51;17.30;53.60
8882;DHT22;4477;48.736;9.176;2024-03-17T11:42:27;17.70;55.70
8882;DHT22;4477;48.736;9.176;2024-03-17T11:44:58;17.70;55.50
8882;DHT22;4477;48.736;9.176;2024-03-17T11:47:36;18.20;52.30
8882;DHT22;4477;48.736;9.176;2024-03-17T11:50:07;18.30;52.90
8882;DHT22;4477;48.736;9.176;2024-03-17T11:52:35;17.70;56.50
8882;DHT22;4477;48.736;9.176;2024-03-17T11:55:03;16.80;55.30
8882;DHT22;4477;48.736;9.176;2024-03-17T11:57:30;16.60;54.70
8882;DHT22;4477;48.736;9.176;2024-03-17T11:59:57;16.00;57.10
8882;DHT22;4477;48.736;9.176;2024-03-17T12:02:25;15.70;56.40
8882;DHT22;4477;48.736;9.176;2024-03-17T12:04:53;15.30;58.20
8882;DHT22;4477;48.736;9.176;2024-03-17T12:07:21;15.30;60.30
8882;DHT22;4477;48.736;9.176;2024-03-17T12:09:50;15.30;58.20
8882;DHT22;4477;48.736;9.176;2024-03-17T12:12:18;15.10;59.50
8882;DHT22;4477;48.736;9.176;2024-03-17T12:14:47;15.10;60.40
8882;DHT22;4477;48.736;9.176;2024-03-17T12:17:14;15.60;58.90
8882;DHT22;4477;48.736;9.176;2024-03-17T12:19:44;15.90;57.00
8882;DHT22;4477;48.736;9.176;2024-03-17T12:22:16;16.10;57.90
8882;DHT22;4477;48.736;9.176;2024-03-17T12:25:23;15.80;60.80
8882;DHT22;4477;48.736;9.176;2024-03-17T12:28:14;15.60;59.90
8882;DHT22;4477;48.736;9.176;2024-03-17T12:44:21;15.80;58.50
8882;DHT22;4477;48.736;9.176;2024-03-17T12:46:48;16.30;58.10
8882;DHT22;4477;48.736;9.176;2024-03-17T12:49:15;16.20;60.10
8882;DHT22;4477;48.736;9.176;2024-03-17T12:51:41;16.10;60.00
8882;DHT22;4477;48.736;9.176;2024-03-17T12:54:14;16.30;59.60
8882;DHT22;4477;48.736;9.176;2024-03-17T12:56:40;16.50;57.70
8882;DHT22;4477;48.736;9.176;2024-03-17T12:59:39;15.80;58.00
8882;DHT22;4477;48.736;9.176;2024-03-17T13:02:24;15.30;58.50
8882;DHT22;4477;48.736;9.176;2024-03-17T13:05:15;14.90;60.80
8882;DHT22;4477;48.736;9.176;2024-03-17T13:07:44;14.90;59.80
8882;DHT22;4477;48.736;9.176;2024-03-17T13:10:13;14.60;58.40
8882;DHT22;4477;48.736;9.176;2024-03-17T13:12:41;14.50;58.20
8882;DHT22;4477;48.736;9.176;2024-03-17T13:15:11;14.50;59.40
8882;DHT22;4477;48.736;9.176;2024-03-17T13:17:38;14.80;59.80
8882;DHT22;4477;48.736;9.176;2024-03-17T13:20:07;15.00;60.30
8882;DHT22;4477;48.736;9.176;2024-03-17T13:22:37;15.40;56.80
8882;DHT22;4477;48.736;9.176;2024-03-17T13:25:09;15.60;58.80
8882;DHT22;4477;48.736;9.176;2024-03-17T13:27:39;15.50;59.50
8882;DHT22;4477;48.736;9.176;2024-03-17T13:30:09;15.90;57.60
8882;DHT22;4477;48.736;9.176;2024-03-17T13:32:36;16.40;58.60
8882;DHT22;4477;48.736;9.176;2024-03-17T13:35:05;16.40;55.10
8882;DHT22;4477;48.736;9.176;2024-03-17T13:37:34;16.50;55.40
8882;DHT22;4477;48.736;9.176;2024-03-17T13:40:02;16.50;56.10
8882;DHT22;4477;48.736;9.176;2024-03-17T13:42:30;16.30;55.20
8882;DHT22;4477;48.736;9.176;2024-03-17T13:44:57;16.50;57.00
8882;DHT22;4477;48.736;9.176;2024-03-17T13:47:26;16.20;57.40
8882;DHT22;4477;48.736;9.176;2024-03-17T13:49:53;16.30;58.30
8882;DHT22;4477;48.736;9.176;2024-03-17T13:52:19;16.10;57.60
8882;DHT22;4477;48.736;9.176;2024-03-17T13:54:46;16.00;57.20
8882;DHT22;4477;48.736;9.176;2024-03-17T13:57:13;16.00;57.00
8882;DHT22;4477;48.736;9.176;2024-03-17T13:59:41;15.70;56.80
8882;DHT22;4477;48.736;9.176;2024-03-17T14:02:12;15.40;58.80
8882;DHT22;4477;48.736;9.176;2024-03-17T14:04:40;15.20;57.70
8882;DHT22;4477;48.736;9.176;2024-03-17T14:07:07;15.10;57.70
8882;DHT22;4477;48.736;9.176;2024-03-17T14:09:34;15.30;57.20
8882;DHT22;4477;48.736;9.176;2024-03-17T14:12:01;15.50;56.90
8882;DHT22;4477;48.736;9.176;2024-03-17T14:14:28;15.40;56.40
8882;DHT22;4477;48.736;9.176;2024-03-17T14:16:55;15.50;57.80
8882;DHT22;4477;48.736;9.176;2024-03-17T14:19:22;15.70;57.10
8882;DHT22;4477;48.736;9.176;2024-03-17T14:21:51;16.10;57.80
8882;DHT22;4477;48.736;9.176;2024-03-17T14:24:18;16.80;56.20
8882;DHT22;4477;48.736;9.176;2024-03-17T14:26:45;17.40;54.40
8882;DHT22;4477;48.736;9.176;2024-03-17T14:29:15;17.70;53.40
8882;DHT22;4477;48.736;9.176;2024-03-17T14:31:41;17.90;54.10
8882;DHT22;4477;48.736;9.176;2024-03-17T14:34:09;17.70;54.60
8882;DHT22;4477;48.736;9.176;2024-03-17T14:36:36;17.70;55.00
8882;DHT22;4477;48.736;9.176;2024-03-17T14:39:08;17.50;55.50
8882;DHT22;4477;48.736;9.176;2024-03-17T14:41:34;17.90;54.80
8882;DHT22;4477;48.736;9.176;2024-03-17T14:44:02;18.20;52.10
8882;DHT22;4477;48.736;9.176;2024-03-17T14:46:29;17.70;51.80
8882;DHT22;4477;48.736;9.176;2024-03-17T14:48:57;17.20;54.20
8882;DHT22;4477;48.736;9.176;2024-03-17T14:51:24;17.00;54.00
8882;DHT22;4477;48.736;9.176;2024-03-17T14:53:51;16.70;55.70
8882;DHT22;4477;48.736;9.176;2024-03-17T14:56:20;16.70;55.40
8882;DHT22;4477;48.736;9.176;2024-03-17T14:58:47;16.70;55.60
8882;DHT22;4477;48.736;9.176;2024-03-17T15:01:16;16.70;55.70
8882;DHT22;4477;48.736;9.176;2024-03-17T15:03:43;16.40;55.70
8882;DHT22;4477;48.736;9.176;2024-03-17T15:06:12;16.30;56.20
8882;DHT22;4477;48.736;9.176;2024-03-17T15:08:40;16.20;56.50
8882;DHT22;4477;48.736;9.176;2024-03-17T15:11:08;16.10;57.40
8882;DHT22;4477;48.736;9.176;2024-03-17T15:13:37;16.20;57.40
8882;DHT22;4477;48.736;9.176;2024-03-17T15:16:06;15.90;57.70
8882;DHT22;4477;48.736;9.176;2024-03-17T15:18:33;15.30;60.80
8882;DHT22;4477;48.736;9.176;2024-03-17T15:21:00;14.90;59.80
8882;DHT22;4477;48.736;9.176;2024-03-17T15:23:31;14.40;60.50
8882;DHT22;4477;48.736;9.176;2024-03-17T15:25:59;14.20;60.00
8882;DHT22;4477;48.736;9.176;2024-03-17T15:28:31;14.10;60.90
8882;DHT22;4477;48.736;9.176;2024-03-17T15:31:02;14.00;60.10
8882;DHT22;4477;48.736;9.176;2024-03-17T15:33:30;13.90;63.20
8882;DHT22;4477;48.736;9.176;2024-03-17T15:36:00;13.90;61.50
8882;DHT22;4477;48.736;9.176;2024-03-17T15:38:27;13.80;64.90
8882;DHT22;4477;48.736;9.176;2024-03-17T15:40:55;13.90;66.50
8882;DHT22;4477;48.736;9.176;2024-03-17T15:43:21;13.70;65.00
8882;DHT22;4477;48.736;9.176;2024-03-17T15:45:49;13.60;65.50
8882;DHT22;4477;48.736;9.176;2024-03-17T15:48:18;13.60;65.80
8882;DHT22;4477;48.736;9.176;2024-03-17T15:50:53;13.50;68.10
8882;DHT22;4477;48.736;9.176;2024-03-17T15:53:20;13.40;69.00
8882;DHT22;4477;48.736;9.176;2024-03-17T15:55:53;13.20;68.70
8882;DHT22;4477;48.736;9.176;2024-03-17T15:58:20;12.90;70.00
8882;DHT22;4477;48.736;9.176;2024-03-17T16:00:48;13.00;71.20
8882;DHT22;4477;48.736;9.176;2024-03-17T16:03:17;12.90;71.00
8882;DHT22;4477;48.736;9.176;2024-03-17T16:05:47;12.90;71.40
8882;DHT22;4477;48.736;9.176;2024-03-17T16:08:18;12.80;71.30
8882;DHT22;4477;48.736;9.176;2024-03-17T16:10:50;12.60;72.00
8882;DHT22;4477;48.736;9.176;2024-03-17T16:13:19;12.50;72.10
8882;DHT22;4477;48.736;9.176;2024-03-17T16:15:49;12.40;73.80
8882;DHT22;4477;48.736;9.176;2024-03-17T16:18:18;12.20;73.50
8882;DHT22;4477;48.736;9.176;2024-03-17T16:21:03;12.10;73.50
8882;DHT22;4477;48.736;9.176;2024-03-17T16:23:34;11.90;75.00
8882;DHT22;4477;48.736;9.176;2024-03-17T16:26:03;11.90;75.20
8882;DHT22;4477;48.736;9.176;2024-03-17T16:28:30;11.90;75.70
8882;DHT22;4477;48.736;9.176;2024-03-17T16:30:57;11.90;77.00
8882;DHT22;4477;48.736;9.176;2024-03-17T16:33:26;11.80;75.70
8882;DHT22;4477;48.736;9.176;2024-03-17T16:35:54;11.70;75.90
8882;DHT22;4477;48.736;9.176;2024-03-17T16:38:22;11.70;75.50